Time;durP1;ratioP1;P1;durP2;ratioP2;P2;SDS_P1;SDS_P2;PMS_P1;PMS_P2;Temp;Humidity;BMP_temperature;BMP_pressure;BME280_temperature;BME280_humidity;BME280_pressure;Samples;Min_cycle;Max_cycle;Signal;HPM_P1;HPM_P2
2021/12/30 00:01:33;;;;;;;;;;;;;;;2.10;90.36;99458.53;4995197;28;19932;-87
2021/12/30 00:03:59;;;;;;;;;;;;;;;2.09;90.60;99469.84;4984966;28;20320;-88
2021/12/30 00:06:24;;;;;;;;;;;;;;;2.14;90.57;99470.69;4981302;28;19921;-89
2021/12/30 00:08:53;;;;;;;;;;;;;;;2.05;90.66;99468.19;5001547;28;19964;-87
2021/12/30 00:11:18;;;;;;;;;;;;;;;2.02;90.49;99468.22;5000394;28;19932;-86
2021/12/30 00:13:47;;;;;;;;;;;;;;;2.05;90.53;99465.56;4985375;28;20000;-88
2021/12/30 00:16:13;;;;;;;;;;;;;;;2.05;90.41;99463.81;5002251;28;19921;-89
2021/12/30 00:18:39;;;;;;;;;;;;;;;2.07;90.62;99461.19;4983591;28;19968;-89
2021/12/30 00:21:05;;;;;;;;;;;;;;;2.08;90.61;99468.16;5000809;28;19922;-89
2021/12/30 00:23:30;;;;;;;;;;;;;;;1.98;90.67;99465.66;5002262;28;20305;-89
2021/12/30 00:25:55;;;;;;;;;;;;;;;2.00;90.94;99473.47;4985116;28;19924;-89
2021/12/30 00:28:22;;;;;;;;;;;;;;;1.99;90.83;99483.06;5002286;28;19925;-88
2021/12/30 00:30:49;;;;;;;;;;;;;;;2.04;90.70;99487.34;4999473;28;20016;-88
2021/12/30 00:33:14;;;;;;;;;;;;;;;2.03;91.33;99490.84;5001380;28;19918;-87
2021/12/30 00:35:40;;;;;;;;;;;;;;;2.04;90.89;99489.97;5002243;28;19968;-89
2021/12/30 00:38:06;;;;;;;;;;;;;;;2.00;91.02;99487.38;4981913;28;20020;-90
2021/12/30 00:40:32;;;;;;;;;;;;;;;1.96;91.19;99496.16;4983856;28;19965;-89
2021/12/30 00:42:59;;;;;;;;;;;;;;;2.03;91.38;99486.50;4994786;28;19936;-87
2021/12/30 00:45:25;;;;;;;;;;;;;;;2.20;94.10;99498.47;5000145;28;19922;-91
2021/12/30 00:47:50;;;;;;;;;;;;;;;2.47;98.04;99495.50;5000054;28;20361;-90
2021/12/30 00:50:16;;;;;;;;;;;;;;;2.61;100.00;99500.50;4984981;28;20391;-85
2021/12/30 00:52:41;;;;;;;;;;;;;;;2.91;100.00;99496.53;4984510;28;19929;-88
2021/12/30 00:55:07;;;;;;;;;;;;;;;3.63;100.00;99498.78;4984424;28;20386;-86
2021/12/30 00:57:32;;;;;;;;;;;;;;;4.01;100.00;99499.78;5000693;28;19926;-88
2021/12/30 00:59:57;;;;;;;;;;;;;;;4.26;100.00;99504.50;5002332;28;19960;-87
2021/12/30 01:02:23;;;;;;;;;;;;;;;4.42;100.00;99505.03;4998619;28;19921;-88
2021/12/30 01:04:48;;;;;;;;;;;;;;;4.52;100.00;99514.44;4998099;28;19947;-86
2021/12/30 01:07:13;;;;;;;;;;;;;;;4.57;100.00;99519.59;4983391;28;19987;-88
2021/12/30 04:17:37;;;;;;;;;;;;;;;3.51;100.00;99675.41;4969266;28;19976;-88
2021/12/30 04:20:04;;;;;;;;;;;;;;;3.42;100.00;99676.41;4989427;28;19926;-90
2021/12/30 04:22:29;;;;;;;;;;;;;;;3.36;100.00;99679.13;4973708;28;19949;-87
2021/12/30 04:24:55;;;;;;;;;;;;;;;3.16;100.00;99681.16;4983198;28;20012;-88
2021/12/30 04:27:20;;;;;;;;;;;;;;;3.14;100.00;99675.94;4982959;28;20277;-87
2021/12/30 04:29:45;;;;;;;;;;;;;;;3.08;100.00;99683.91;4982772;28;19922;-89
2021/12/30 04:32:10;;;;;;;;;;;;;;;3.02;100.00;99690.09;4981599;28;19922;-87
2021/12/30 04:34:36;;;;;;;;;;;;;;;2.95;100.00;99695.41;4982964;28;20412;-88
2021/12/30 04:37:01;;;;;;;;;;;;;;;2.85;100.00;99694.69;4965356;28;20149;-86
2021/12/30 04:39:27;;;;;;;;;;;;;;;2.77;100.00;99693.91;4982555;28;19918;-86
2021/12/30 04:41:53;;;;;;;;;;;;;;;2.69;100.00;99686.16;4983265;28;19964;-87
2021/12/30 04:44:18;;;;;;;;;;;;;;;2.73;100.00;99691.34;4982906;28;19953;-86
2021/12/30 04:46:44;;;;;;;;;;;;;;;2.68;100.00;99692.25;4981227;28;19922;-89
2021/12/30 04:49:09;;;;;;;;;;;;;;;2.65;100.00;99690.56;4965065;28;19921;-89
2021/12/30 04:51:34;;;;;;;;;;;;;;;2.59;100.00;99695.88;4983254;28;19925;-88
2021/12/30 04:54:00;;;;;;;;;;;;;;;2.54;100.00;99697.69;4964978;28;19925;-89
2021/12/30 04:56:25;;;;;;;;;;;;;;;2.48;100.00;99697.75;4982309;28;20293;-85
2021/12/30 04:58:50;;;;;;;;;;;;;;;2.41;100.00;99699.56;4982293;28;20016;-88
2021/12/30 05:01:15;;;;;;;;;;;;;;;2.65;100.00;99693.19;4964880;28;19918;-89
2021/12/30 05:03:41;;;;;;;;;;;;;;;2.61;100.00;99699.31;4986574;28;19922;-90
2021/12/30 05:06:06;;;;;;;;;;;;;;;2.54;100.00;99706.38;4986201;28;20012;-86
2021/12/30 05:08:31;;;;;;;;;;;;;;;2.58;100.00;99709.81;4986319;28;19917;-89
2021/12/30 05:10:57;;;;;;;;;;;;;;;2.48;100.00;99716.91;4969302;28;19922;-86
2021/12/30 05:13:22;;;;;;;;;;;;;;;2.44;100.00;99720.47;4969104;28;19918;-87
2021/12/30 05:15:49;;;;;;;;;;;;;;;2.35;100.00;99723.16;4967070;28;19929;-87
2021/12/30 05:18:15;;;;;;;;;;;;;;;2.26;100.00;99723.25;4976787;28;19976;-90
2021/12/30 05:20:41;;;;;;;;;;;;;;;2.31;100.00;99724.06;4986326;28;20258;-90
2021/12/30 05:23:07;;;;;;;;;;;;;;;2.23;100.00;99729.38;4986002;28;19966;-89
2021/12/30 05:25:32;;;;;;;;;;;;;;;2.17;100.00;99732.03;4985910;28;20380;-89
2021/12/30 05:27:58;;;;;;;;;;;;;;;2.15;100.00;99731.19;4986505;28;19917;-87
2021/12/30 05:30:23;;;;;;;;;;;;;;;2.16;100.00;99739.03;4967222;28;19925;-88
2021/12/30 05:32:50;;;;;;;;;;;;;;;2.13;100.00;99738.19;4991974;28;19992;-90
2021/12/30 05:35:16;;;;;;;;;;;;;;;2.06;100.00;99742.63;4985698;28;19925;-89
2021/12/30 05:37:41;;;;;;;;;;;;;;;2.06;99.79;99755.69;4968293;28;19926;-89
2021/12/30 05:40:08;;;;;;;;;;;;;;;1.99;99.71;99752.25;4986004;28;19918;-89
2021/12/30 05:42:33;;;;;;;;;;;;;;;2.02;98.69;99760.94;4968472;28;20004;-87
2021/12/30 05:44:59;;;;;;;;;;;;;;;1.90;97.95;99770.63;4968127;28;20353;-87
2021/12/30 05:47:24;;;;;;;;;;;;;;;1.89;97.28;99761.03;4984652;28;20464;-88
2021/12/30 08:13:44;;;;;;;;;;;;;;;3.77;100.00;99904.78;5712229;23;19934;-88
2021/12/30 08:16:09;;;;;;;;;;;;;;;3.78;100.00;99906.50;4943357;28;19922;-92
2021/12/30 08:18:44;;;;;;;;;;;;;;;3.80;100.00;99916.06;4944661;29;19922;-89
2021/12/30 08:21:10;;;;;;;;;;;;;;;3.86;100.00;99916.88;4931415;29;19926;-89
2021/12/30 08:23:36;;;;;;;;;;;;;;;3.88;100.00;99920.34;4944532;29;20393;-89
2021/12/30 08:26:04;;;;;;;;;;;;;;;3.88;100.00;99918.59;4943654;29;19919;-90
2021/12/30 08:28:29;;;;;;;;;;;;;;;3.91;100.00;99917.69;4948435;29;20006;-90
2021/12/30 08:30:55;;;;;;;;;;;;;;;3.92;100.00;99919.41;4927230;29;20455;-89
2021/12/30 08:33:20;;;;;;;;;;;;;;;3.93;100.00;99915.94;4942914;29;19919;-88
2021/12/30 08:35:46;;;;;;;;;;;;;;;4.00;100.00;99907.06;4943516;28;19922;-90
2021/12/30 08:38:13;;;;;;;;;;;;;;;3.97;100.00;99909.72;4944291;29;19929;-90
2021/12/30 08:40:38;;;;;;;;;;;;;;;4.03;100.00;99911.41;4944016;29;20014;-90
2021/12/30 08:43:06;;;;;;;;;;;;;;;4.01;100.00;99914.06;4948827;29;20750;-90
2021/12/30 08:45:32;;;;;;;;;;;;;;;4.04;100.00;99914.03;4927355;29;19942;-90
2021/12/30 08:47:57;;;;;;;;;;;;;;;4.11;100.00;99920.03;4926671;29;19922;-90
2021/12/30 08:50:22;;;;;;;;;;;;;;;4.09;100.00;99922.69;4943590;29;19929;-87
2021/12/30 08:52:48;;;;;;;;;;;;;;;4.12;100.00;99932.28;4943714;29;19966;-90
2021/12/30 08:55:14;;;;;;;;;;;;;;;4.09;100.00;99922.69;4927063;29;19919;-90
2021/12/30 08:57:41;;;;;;;;;;;;;;;4.13;100.00;99926.13;4943195;29;19919;-89
2021/12/30 09:00:10;;;;;;;;;;;;;;;4.18;100.00;99927.78;4949565;29;19918;-89
2021/12/30 09:02:35;;;;;;;;;;;;;;;4.22;100.00;99940.88;4944110;29;19923;-88
2021/12/30 09:05:01;;;;;;;;;;;;;;;4.27;100.00;99941.66;4943709;28;19966;-90
2021/12/30 09:07:26;;;;;;;;;;;;;;;4.30;100.00;99944.25;4949101;28;19940;-89
2021/12/30 09:09:51;;;;;;;;;;;;;;;4.32;100.00;99950.31;4943280;29;20321;-89
2021/12/30 09:12:18;;;;;;;;;;;;;;;4.31;100.00;99946.00;4926288;29;19925;-87
2021/12/30 09:14:43;;;;;;;;;;;;;;;4.35;100.00;99945.03;4951370;28;19926;-89
2021/12/30 09:17:08;;;;;;;;;;;;;;;4.35;100.00;99951.13;4963905;28;19926;-86
2021/12/30 09:19:34;;;;;;;;;;;;;;;4.39;100.00;99953.72;4967589;28;19933;-87
2021/12/30 09:21:59;;;;;;;;;;;;;;;4.41;100.00;99955.44;4945842;28;19923;-87
2021/12/30 09:24:24;;;;;;;;;;;;;;;4.45;100.00;99957.16;4962749;28;20342;-89
2021/12/30 09:26:50;;;;;;;;;;;;;;;4.48;100.00;99966.72;4962402;28;19918;-89
2021/12/30 09:29:15;;;;;;;;;;;;;;;4.49;100.00;99964.06;4961787;28;20293;-88
2021/12/30 09:31:41;;;;;;;;;;;;;;;4.51;100.00;99962.28;4945547;28;20286;-88
2021/12/30 09:34:06;;;;;;;;;;;;;;;4.50;100.00;99973.69;4962751;28;19941;-89
2021/12/30 09:36:32;;;;;;;;;;;;;;;4.59;100.00;99963.94;4962529;28;20476;-87
2021/12/30 09:38:57;;;;;;;;;;;;;;;4.57;100.00;99965.72;4962195;28;20300;-87
2021/12/30 09:41:22;;;;;;;;;;;;;;;4.60;100.00;99970.94;4962385;28;19919;-87
2021/12/30 09:43:48;;;;;;;;;;;;;;;4.62;99.59;99974.38;4967130;28;20405;-87
2021/12/30 09:46:14;;;;;;;;;;;;;;;4.62;99.00;99974.38;4945158;28;19925;-86
2021/12/30 09:48:39;;;;;;;;;;;;;;;4.64;98.56;99983.09;4946447;28;20404;-87
2021/12/30 09:51:07;;;;;;;;;;;;;;;4.63;98.21;99978.75;4966008;28;19923;-87
2021/12/30 09:53:32;;;;;;;;;;;;;;;4.67;97.78;99985.66;4965824;28;19926;-86
2021/12/30 09:55:59;;;;;;;;;;;;;;;4.67;97.45;99993.53;4949003;28;20717;-87
2021/12/30 09:58:25;;;;;;;;;;;;;;;4.69;97.24;99979.53;4965166;28;20407;-90
2021/12/30 10:00:51;;;;;;;;;;;;;;;4.73;97.11;99988.19;4948326;28;19923;-89
2021/12/30 10:03:16;;;;;;;;;;;;;;;4.72;96.86;99987.34;4972352;28;20012;-87
2021/12/30 10:05:41;;;;;;;;;;;;;;;4.78;96.73;99991.63;4965533;28;20464;-86
2021/12/30 10:08:24;;;;;;;;;;;;;;;4.78;96.37;99996.88;4948592;28;20412;-86
2021/12/30 10:10:57;;;;;;;;;;;;;;;4.82;96.09;99987.19;4948703;28;20452;-87
2021/12/30 10:13:24;;;;;;;;;;;;;;;4.82;95.70;99987.19;4964331;28;19922;-87
2021/12/30 10:15:51;;;;;;;;;;;;;;;4.83;95.38;99983.66;4971385;28;20309;-88
2021/12/30 10:18:18;;;;;;;;;;;;;;;4.87;95.31;99977.50;4965241;28;19922;-88
2021/12/30 10:20:44;;;;;;;;;;;;;;;4.87;95.04;99978.34;4965356;28;19941;-86
2021/12/30 10:23:14;;;;;;;;;;;;;;;4.87;94.81;99978.34;4971616;28;20369;-87
2021/12/30 10:25:41;;;;;;;;;;;;;;;4.91;94.72;99973.91;4955173;28;19922;-87
2021/12/30 10:28:20;;;;;;;;;;;;;;;4.91;94.56;99979.16;4964423;28;19921;-88
2021/12/30 10:30:45;;;;;;;;;;;;;;;4.94;94.46;99986.97;4965522;28;19954;-86
2021/12/30 10:33:15;;;;;;;;;;;;;;;4.95;94.04;99991.34;4947653;28;19993;-87
2021/12/30 10:35:41;;;;;;;;;;;;;;;4.95;93.97;99988.72;4970832;28;19931;-86
2021/12/30 10:38:09;;;;;;;;;;;;;;;5.00;93.81;99980.78;4964954;28;19918;-88
2021/12/30 10:40:36;;;;;;;;;;;;;;;5.02;94.01;99986.84;4955385;28;19918;-86
2021/12/30 10:43:12;;;;;;;;;;;;;;;5.06;93.80;99985.94;4970230;28;20348;-88
2021/12/30 10:45:37;;;;;;;;;;;;;;;5.05;93.59;99986.81;4948211;28;20441;-87
2021/12/30 10:48:03;;;;;;;;;;;;;;;5.04;93.27;99988.59;4947894;28;19926;-87
2021/12/30 10:50:28;;;;;;;;;;;;;;;5.07;92.95;99987.66;4965458;28;19922;-88
2021/12/30 10:52:55;;;;;;;;;;;;;;;5.08;92.96;99982.38;4965139;28;20403;-87
2021/12/30 10:55:21;;;;;;;;;;;;;;;5.11;93.13;99981.47;4964734;28;20022;-87
2021/12/30 10:57:47;;;;;;;;;;;;;;;5.14;92.94;99981.41;4963837;28;20020;-86
2021/12/30 11:00:24;;;;;;;;;;;;;;;5.14;92.75;99981.41;4946937;28;20409;-86
2021/12/30 11:02:49;;;;;;;;;;;;;;;5.19;92.53;99976.94;4947526;28;20058;-89
2021/12/30 11:05:18;;;;;;;;;;;;;;;5.18;92.24;99980.44;4947314;28;20012;-86
2021/12/30 11:07:52;;;;;;;;;;;;;;;5.18;92.06;99983.06;4964443;28;19922;-87
2021/12/30 11:10:35;;;;;;;;;;;;;;;5.21;92.05;99983.00;4970838;28;19922;-87
2021/12/30 11:13:11;;;;;;;;;;;;;;;5.25;91.83;99975.97;4945927;28;19953;-87
2021/12/30 11:15:36;;;;;;;;;;;;;;;5.25;92.12;99982.06;4964193;28;19930;-89
2021/12/30 11:18:07;;;;;;;;;;;;;;;5.27;92.07;99993.41;4947359;28;19973;-87
2021/12/30 11:20:37;;;;;;;;;;;;;;;5.27;92.22;99989.94;4948330;28;19929;-88
2021/12/30 11:23:02;;;;;;;;;;;;;;;5.33;92.17;99987.19;4970600;28;19988;-89
2021/12/30 11:25:28;;;;;;;;;;;;;;;5.33;92.21;99988.94;4964461;28;20390;-86
2021/12/30 11:27:54;;;;;;;;;;;;;;;5.36;92.13;99996.78;4963593;28;19942;-86
2021/12/30 11:30:19;;;;;;;;;;;;;;;5.39;92.26;99994.97;4964129;28;20289;-86
2021/12/30 11:32:48;;;;;;;;;;;;;;;5.39;92.33;99988.84;4963339;28;20294;-86
2021/12/30 11:35:13;;;;;;;;;;;;;;;5.40;92.35;99990.56;4947064;28;19929;-86
2021/12/30 11:37:39;;;;;;;;;;;;;;;5.45;92.16;99991.34;4964291;28;19919;-88
2021/12/30 11:40:09;;;;;;;;;;;;;;;5.49;92.07;100000.94;4963656;28;19923;-86
2021/12/30 11:42:43;;;;;;;;;;;;;;;5.49;92.16;99987.78;4964123;28;19918;-85
2021/12/30 11:45:29;;;;;;;;;;;;;;;5.52;92.17;99981.59;4946407;28;20389;-85
2021/12/30 11:47:57;;;;;;;;;;;;;;;5.53;92.04;99983.31;4947727;28;19925;-86
2021/12/30 11:50:26;;;;;;;;;;;;;;;5.55;92.13;99977.16;4971171;28;19926;-88
2021/12/30 11:52:53;;;;;;;;;;;;;;;5.57;92.41;99985.00;4969615;28;19922;-88
2021/12/30 11:55:37;;;;;;;;;;;;;;;5.58;92.39;99990.22;4963981;28;20052;-85
2021/12/30 11:58:23;;;;;;;;;;;;;;;5.61;92.24;99998.03;4969105;28;20047;-86
2021/12/30 12:00:49;;;;;;;;;;;;;;;5.63;92.20;99983.13;4963479;28;20012;-88
2021/12/30 12:03:27;;;;;;;;;;;;;;;5.62;92.32;99986.66;4963522;28;19925;-88
2021/12/30 12:05:53;;;;;;;;;;;;;;;5.64;92.13;99992.72;4970178;28;19962;-89
2021/12/30 12:08:18;;;;;;;;;;;;;;;5.67;92.18;99980.44;4963807;28;19930;-89
2021/12/30 12:11:03;;;;;;;;;;;;;;;5.68;92.21;99976.91;4945896;28;20986;-86
2021/12/30 12:13:34;;;;;;;;;;;;;;;5.69;92.09;99989.16;4944944;28;20305;-85
2021/12/30 12:16:00;;;;;;;;;;;;;;;5.75;92.27;99970.63;4946213;28;19927;-89
2021/12/30 12:18:29;;;;;;;;;;;;;;;5.75;92.03;99962.75;4953886;28;20270;-85
2021/12/30 12:20:55;;;;;;;;;;;;;;;5.75;91.98;99955.72;4962644;28;19925;-86
2021/12/30 12:23:34;;;;;;;;;;;;;;;5.77;92.00;99951.28;4946288;28;19929;-88
2021/12/30 12:26:09;;;;;;;;;;;;;;;5.78;92.00;99937.25;4962985;28;19924;-86
2021/12/30 12:28:45;;;;;;;;;;;;;;;5.81;91.78;99934.56;4945086;28;19925;-85
2021/12/30 12:31:11;;;;;;;;;;;;;;;5.83;91.67;99931.91;4963789;28;19929;-85
2021/12/30 12:33:38;;;;;;;;;;;;;;;5.87;91.81;99954.63;4963847;28;20405;-87
2021/12/30 12:36:11;;;;;;;;;;;;;;;5.88;91.87;99956.31;4962778;28;20013;-89
2021/12/30 12:38:36;;;;;;;;;;;;;;;5.89;91.99;99960.69;4945545;28;20429;-89
2021/12/30 12:41:14;;;;;;;;;;;;;;;5.96;92.11;99964.94;4962861;28;20017;-86
2021/12/30 12:43:39;;;;;;;;;;;;;;;5.95;92.10;99967.56;4968359;28;20493;-89
2021/12/30 12:46:05;;;;;;;;;;;;;;;5.98;92.21;99967.53;4962604;28;20013;-88
2021/12/30 12:48:32;;;;;;;;;;;;;;;5.97;91.95;99971.09;4969459;28;19918;-86
2021/12/30 12:50:59;;;;;;;;;;;;;;;6.03;91.97;99972.72;4962641;28;19919;-87
2021/12/30 12:53:24;;;;;;;;;;;;;;;6.07;92.43;99974.41;4945890;28;20416;-86
2021/12/30 12:56:00;;;;;;;;;;;;;;;6.05;92.86;99963.91;4945344;28;19918;-85
2021/12/30 12:58:26;;;;;;;;;;;;;;;6.00;93.45;99964.00;4952219;28;19929;-85
2021/12/30 13:00:55;;;;;;;;;;;;;;;5.94;93.65;99955.34;4963255;28;20377;-87
2021/12/30 13:03:23;;;;;;;;;;;;;;;5.86;93.70;99957.28;4945795;28;19918;-84
2021/12/30 13:05:52;;;;;;;;;;;;;;;5.77;94.00;99956.53;4945504;28;19918;-86
2021/12/30 13:08:18;;;;;;;;;;;;;;;5.78;94.03;99952.16;4962372;28;19918;-87
2021/12/30 13:10:43;;;;;;;;;;;;;;;5.76;94.18;99959.19;4969303;28;20010;-87
2021/12/30 13:13:09;;;;;;;;;;;;;;;5.74;94.65;99961.00;4944405;28;19922;-88
2021/12/30 13:15:38;;;;;;;;;;;;;;;5.76;95.63;99967.09;4945667;28;19933;-88
2021/12/30 13:18:12;;;;;;;;;;;;;;;5.77;96.98;99956.53;4962821;28;19923;-87
2021/12/30 13:20:38;;;;;;;;;;;;;;;5.81;99.04;99957.38;4946066;28;20441;-89
2021/12/30 13:23:03;;;;;;;;;;;;;;;5.98;100.00;99952.66;4946258;28;19926;-88
2021/12/30 13:25:28;;;;;;;;;;;;;;;6.24;100.00;99966.13;4966350;28;19918;-87
2021/12/30 13:27:54;;;;;;;;;;;;;;;6.50;100.00;99960.28;4948922;28;20016;-85
2021/12/30 13:30:20;;;;;;;;;;;;;;;6.66;100.00;99966.91;4950127;28;19961;-89
2021/12/30 13:32:50;;;;;;;;;;;;;;;6.77;100.00;99966.66;4966203;28;19960;-88
2021/12/30 13:35:23;;;;;;;;;;;;;;;6.90;100.00;99962.78;4949041;28;19923;-86
2021/12/30 13:37:53;;;;;;;;;;;;;;;6.97;100.00;99963.50;4972627;28;20786;-89
2021/12/30 13:40:23;;;;;;;;;;;;;;;7.02;100.00;99968.66;4948874;28;19961;-88
2021/12/30 13:42:51;;;;;;;;;;;;;;;7.08;100.00;99969.38;4947887;28;19922;-88
2021/12/30 13:45:21;;;;;;;;;;;;;;;7.13;100.00;99971.03;4948713;28;20309;-87
2021/12/30 13:47:47;;;;;;;;;;;;;;;7.20;100.00;99970.84;4972504;28;19928;-89
2021/12/30 13:50:14;;;;;;;;;;;;;;;7.25;100.00;99970.72;4966091;28;20296;-87
2021/12/30 13:52:42;;;;;;;;;;;;;;;7.27;100.00;99972.41;4948648;28;19964;-88
2021/12/30 13:55:15;;;;;;;;;;;;;;;7.34;100.00;99975.75;4965408;28;19977;-87
2021/12/30 13:57:41;;;;;;;;;;;;;;;7.37;100.00;99982.69;4965190;28;19922;-89
2021/12/30 14:00:08;;;;;;;;;;;;;;;7.43;100.00;99986.03;4946707;28;19929;-89
2021/12/30 14:02:37;;;;;;;;;;;;;;;7.46;100.00;99990.34;4972753;28;19922;-89
2021/12/30 14:05:04;;;;;;;;;;;;;;;7.49;100.00;99995.56;4973011;28;19985;-87
2021/12/30 14:07:41;;;;;;;;;;;;;;;7.51;100.00;99999.00;4965709;28;19941;-88
2021/12/30 14:10:07;;;;;;;;;;;;;;;7.57;100.00;99998.00;4955010;28;19968;-87
2021/12/30 14:12:32;;;;;;;;;;;;;;;7.60;100.00;99997.91;4964798;28;20432;-90
2021/12/30 14:15:17;;;;;;;;;;;;;;;7.61;100.00;99999.63;4946258;28;20384;-89
2021/12/30 14:17:56;;;;;;;;;;;;;;;7.67;100.00;100003.88;4971850;28;19926;-89
2021/12/30 14:20:50;;;;;;;;;;;;;;;7.71;100.00;100002.91;4965139;28;19982;-91
2021/12/30 14:23:37;;;;;;;;;;;;;;;7.74;100.00;100008.94;4943113;28;19961;-86
2021/12/30 14:26:09;;;;;;;;;;;;;;;7.20;100.00;100010.38;4965921;28;19930;-87
2021/12/30 14:28:34;;;;;;;;;;;;;;;5.41;100.00;100019.47;4954932;28;19918;-87
2021/12/30 14:30:59;;;;;;;;;;;;;;;4.94;100.00;100021.13;4965451;28;19929;-88
2021/12/30 14:33:29;;;;;;;;;;;;;;;4.67;100.00;100018.03;4965246;28;19957;-85
2021/12/30 14:36:16;;;;;;;;;;;;;;;4.25;100.00;100022.16;4964853;28;19968;-88
2021/12/30 14:38:54;;;;;;;;;;;;;;;;;;;;;
2021/12/30 14:41:24;;;;;;;;;;;;;;;4.05;100.00;100020.63;4965074;28;20353;-88
2021/12/30 14:44:11;;;;;;;;;;;;;;;3.86;99.12;100020.00;4943300;28;19929;-88
2021/12/30 14:46:43;;;;;;;;;;;;;;;3.77;98.88;100000.00;4965532;28;19925;-89
2021/12/30 14:49:15;;;;;;;;;;;;;;;3.63;98.57;100020.25;4947923;28;19925;-88
2021/12/30 14:51:41;;;;;;;;;;;;;;;3.40;98.34;100016.13;4955182;28;20008;-88
2021/12/30 14:54:09;;;;;;;;;;;;;;;3.19;97.99;100011.97;4954777;28;19957;-88
2021/12/30 14:56:42;;;;;;;;;;;;;;;3.28;98.12;100021.47;4947212;28;19923;-87
2021/12/30 14:59:10;;;;;;;;;;;;;;;3.18;97.52;100039.03;4947218;28;19918;-87
2021/12/30 15:01:40;;;;;;;;;;;;;;;3.08;97.84;100038.22;4964644;28;19918;-89
2021/12/30 15:04:28;;;;;;;;;;;;;;;3.09;97.62;100039.97;4947241;28;19929;-88
2021/12/30 15:06:54;;;;;;;;;;;;;;;3.00;97.25;100034.81;4932316;28;20024;-88
2021/12/30 15:09:22;;;;;;;;;;;;;;;2.99;96.65;100034.81;4964693;28;19962;-88
2021/12/30 15:11:50;;;;;;;;;;;;;;;2.86;96.36;100037.53;4971275;28;20274;-86
2021/12/30 15:14:16;;;;;;;;;;;;;;;2.81;95.99;100046.28;4946315;28;19926;-88
2021/12/30 15:16:45;;;;;;;;;;;;;;;2.72;95.67;100055.06;4963295;28;19954;-86
2021/12/30 15:19:11;;;;;;;;;;;;;;;2.66;95.42;100061.19;4964762;28;20013;-85
2021/12/30 15:21:36;;;;;;;;;;;;;;;2.62;95.20;100058.63;4946820;28;20005;-87
2021/12/30 15:24:05;;;;;;;;;;;;;;;2.61;95.10;100060.38;4964233;28;19980;-89
2021/12/30 15:26:36;;;;;;;;;;;;;;;2.49;94.61;100071.78;4969510;28;19942;-87
2021/12/30 15:29:01;;;;;;;;;;;;;;;2.49;94.31;100071.78;4945288;28;19923;-86
2021/12/30 15:31:27;;;;;;;;;;;;;;;2.46;94.29;100076.16;4964160;28;19923;-89
2021/12/30 15:33:53;;;;;;;;;;;;;;;2.41;94.04;100077.91;4947344;28;20330;-88
2021/12/30 15:36:24;;;;;;;;;;;;;;;2.38;94.01;100072.69;4965191;28;20350;-87
2021/12/30 15:38:49;;;;;;;;;;;;;;;2.28;94.21;100085.84;4964052;28;19991;-86
2021/12/30 15:41:15;;;;;;;;;;;;;;;2.29;94.37;100084.94;4964034;28;19922;-87
2021/12/30 15:43:40;;;;;;;;;;;;;;;2.30;94.31;100086.69;4962701;28;19926;-86
2021/12/30 15:46:07;;;;;;;;;;;;;;;2.22;94.12;100083.25;4962984;28;20888;-88
2021/12/30 15:48:33;;;;;;;;;;;;;;;2.22;94.00;100091.09;4947193;28;19926;-88
2021/12/30 15:51:01;;;;;;;;;;;;;;;2.18;94.00;100092.81;4947147;28;19922;-88
2021/12/30 15:53:27;;;;;;;;;;;;;;;2.12;94.02;100099.81;4946239;28;20021;-87
2021/12/30 15:55:52;;;;;;;;;;;;;;;2.09;94.12;100097.22;4970276;28;20466;-87
2021/12/30 15:58:18;;;;;;;;;;;;;;;2.12;93.96;100102.44;4945531;28;20421;-87
2021/12/30 16:00:44;;;;;;;;;;;;;;;2.05;93.80;100096.38;4945817;28;19918;-86
2021/12/30 16:03:12;;;;;;;;;;;;;;;2.00;93.91;100109.44;4945061;28;20377;-87
2021/12/30 16:05:37;;;;;;;;;;;;;;;1.98;93.93;100116.44;4946494;28;19922;-88
2021/12/30 16:08:02;;;;;;;;;;;;;;;1.97;94.18;100109.44;4946068;28;20337;-87
2021/12/30 16:10:30;;;;;;;;;;;;;;;1.90;93.73;100110.34;4946033;28;20017;-87
2021/12/30 16:12:56;;;;;;;;;;;;;;;1.86;93.35;100111.22;4952368;28;19972;-86
2021/12/30 16:15:31;;;;;;;;;;;;;;;1.83;93.16;100121.69;4963123;28;19927;-88
2021/12/30 16:17:56;;;;;;;;;;;;;;;1.75;93.14;100129.53;4969757;28;20492;-88
2021/12/30 16:20:21;;;;;;;;;;;;;;;1.80;92.97;100116.47;4963389;28;19926;-88
2021/12/30 16:22:47;;;;;;;;;;;;;;;1.82;93.09;100112.13;4945748;28;19968;-87
2021/12/30 16:25:13;;;;;;;;;;;;;;;1.77;93.03;100122.56;4953859;28;19918;-89
2021/12/30 16:27:38;;;;;;;;;;;;;;;1.76;93.11;100113.00;4945723;28;19945;-90
2021/12/30 16:30:06;;;;;;;;;;;;;;;1.70;93.01;100114.75;4946532;28;20637;-89
2021/12/30 16:32:32;;;;;;;;;;;;;;;1.72;93.00;100113.84;4944823;28;19933;-87
2021/12/30 16:35:03;;;;;;;;;;;;;;;1.69;93.02;100118.22;4963467;28;19918;-87
2021/12/30 16:37:28;;;;;;;;;;;;;;;1.64;92.51;100118.22;4944659;28;19926;-86
2021/12/30 16:39:54;;;;;;;;;;;;;;;1.63;92.65;100122.59;4947122;28;19929;-87
2021/12/30 16:42:19;;;;;;;;;;;;;;;1.86;93.39;100110.38;4947403;28;19926;-87
2021/12/30 16:44:44;;;;;;;;;;;;;;;1.99;95.06;100123.41;4967373;28;19918;-87
2021/12/30 16:47:12;;;;;;;;;;;;;;;2.32;99.02;100111.09;4963557;28;20389;-86
2021/12/30 16:49:38;;;;;;;;;;;;;;;2.54;100.00;100122.31;4947430;28;19925;-85
2021/12/30 16:52:03;;;;;;;;;;;;;;;2.70;100.00;100119.66;4946845;28;19923;-88
2021/12/30 16:54:28;;;;;;;;;;;;;;;2.78;100.00;100114.38;4963793;28;20001;-86
2021/12/30 16:56:54;;;;;;;;;;;;;;;2.88;100.00;100119.53;4945256;28;20018;-87
2021/12/30 16:59:21;;;;;;;;;;;;;;;2.87;100.00;100127.38;4966018;28;19965;-89
2021/12/30 17:01:47;;;;;;;;;;;;;;;2.89;100.00;100141.34;4957718;28;20469;-89
2021/12/30 17:04:12;;;;;;;;;;;;;;;2.96;100.00;100145.66;4949601;28;19930;-88
2021/12/30 17:06:38;;;;;;;;;;;;;;;3.00;100.00;100131.69;4949845;28;19957;-86
2021/12/30 17:09:03;;;;;;;;;;;;;;;3.00;100.00;100138.63;4966760;28;19933;-86
2021/12/30 17:11:28;;;;;;;;;;;;;;;2.98;100.00;100143.88;4951054;28;19969;-88
2021/12/30 17:13:54;;;;;;;;;;;;;;;3.02;100.00;100155.22;4966196;28;19929;-87
2021/12/30 17:16:21;;;;;;;;;;;;;;;3.07;100.00;100159.53;4950401;28;19933;-88
2021/12/30 17:18:46;;;;;;;;;;;;;;;3.10;100.00;100150.81;4948359;28;19981;-87
2021/12/30 17:21:13;;;;;;;;;;;;;;;3.07;100.00;100156.94;4950297;28;20178;-86
2021/12/30 17:23:38;;;;;;;;;;;;;;;3.10;100.00;100163.91;4967323;28;20428;-86
2021/12/30 17:26:04;;;;;;;;;;;;;;;3.17;100.00;100162.97;4968110;28;19929;-87
2021/12/30 17:28:30;;;;;;;;;;;;;;;3.19;100.00;100168.19;4967130;28;19978;-88
2021/12/30 17:30:55;;;;;;;;;;;;;;;3.21;100.00;100166.47;4967264;28;19926;-86
2021/12/30 17:33:21;;;;;;;;;;;;;;;3.27;100.00;100175.13;4954488;28;19926;-86
2021/12/30 17:35:47;;;;;;;;;;;;;;;3.26;100.00;100172.53;4968421;28;19986;-87
2021/12/30 17:38:13;;;;;;;;;;;;;;;3.32;100.00;100166.38;4966763;28;19930;-86
2021/12/30 17:40:38;;;;;;;;;;;;;;;3.33;100.00;100163.72;4950073;28;20369;-87
2021/12/30 17:43:04;;;;;;;;;;;;;;;3.34;100.00;100168.09;4965192;28;19937;-87
2021/12/30 17:45:29;;;;;;;;;;;;;;;3.33;100.00;100166.34;4968274;28;19931;-88
2021/12/30 17:47:55;;;;;;;;;;;;;;;3.35;100.00;100172.47;4967289;28;20259;-88
2021/12/30 17:50:29;;;;;;;;;;;;;;;3.38;100.00;100175.06;4966904;28;19927;-87
2021/12/30 17:52:59;;;;;;;;;;;;;;;3.36;100.00;100166.34;4967003;28;19984;-87
2021/12/30 17:55:25;;;;;;;;;;;;;;;3.36;100.00;100174.19;4966771;28;19923;-87
2021/12/30 17:57:51;;;;;;;;;;;;;;;3.41;100.00;100179.41;4966441;28;20385;-86
2021/12/30 18:00:17;;;;;;;;;;;;;;;3.50;100.00;100175.84;4948633;28;19969;-88
2021/12/30 18:02:42;;;;;;;;;;;;;;;3.47;100.00;100175.88;4948645;28;19922;-88
2021/12/30 18:05:08;;;;;;;;;;;;;;;3.51;100.00;100185.44;4971734;28;19926;-86
2021/12/30 18:07:34;;;;;;;;;;;;;;;3.44;100.00;100189.84;4952585;28;19969;-87
2021/12/30 18:09:59;;;;;;;;;;;;;;;3.45;100.00;100196.84;4963011;28;19923;-88
2021/12/30 18:12:25;;;;;;;;;;;;;;;3.45;100.00;100187.22;4949078;28;20004;-88
2021/12/30 18:14:54;;;;;;;;;;;;;;;3.48;100.00;100188.06;4965601;28;20271;-89
2021/12/30 18:17:19;;;;;;;;;;;;;;;3.51;100.00;100182.81;4966006;28;20017;-89
2021/12/30 18:19:44;;;;;;;;;;;;;;;3.49;100.00;100187.22;4947420;28;20076;-86
2021/12/30 18:22:13;;;;;;;;;;;;;;;3.52;100.00;100189.81;4954205;28;19945;-89
2021/12/30 18:24:39;;;;;;;;;;;;;;;3.51;100.00;100182.81;4966733;28;19926;-88